createdAt,value
2023-05-07T00:02:40.546Z,44.20
2023-05-07T00:05:29.407Z,44.20
2023-05-07T00:08:18.228Z,44.20
2023-05-07T00:11:07.034Z,44.30
2023-05-07T00:13:55.676Z,44.20
2023-05-07T00:16:44.295Z,44.30
2023-05-07T00:19:34.286Z,44.30
2023-05-07T00:22:22.768Z,44.30
2023-05-07T00:25:11.636Z,44.30
2023-05-07T00:28:04.874Z,44.20
2023-05-07T00:30:53.505Z,44.20
2023-05-07T00:33:42.166Z,44.20
2023-05-07T00:36:32.103Z,44.20
2023-05-07T00:39:20.768Z,44.20
2023-05-07T00:42:09.270Z,44.20
2023-05-07T00:44:58.008Z,44.20
2023-05-07T00:47:46.757Z,44.20
2023-05-07T00:50:35.469Z,44.20
2023-05-07T00:53:25.810Z,44.20
2023-05-07T00:56:14.784Z,44.20
2023-05-07T00:59:04.093Z,44.20
2023-05-07T01:01:53.957Z,44.20
2023-05-07T01:04:42.633Z,44.20
2023-05-07T01:07:32.850Z,44.20
2023-05-07T01:10:23.388Z,44.20
2023-05-07T01:13:13.973Z,44.20
2023-05-07T01:16:02.773Z,44.30
2023-05-07T01:18:51.911Z,44.20
2023-05-07T01:21:40.863Z,44.20
2023-05-07T01:24:31.068Z,44.20
2023-05-07T01:27:19.725Z,44.20
2023-05-07T01:30:09.641Z,44.20
2023-05-07T01:33:04.067Z,44.20
2023-05-07T01:35:55.789Z,44.20
2023-05-07T01:38:44.935Z,44.20
2023-05-07T01:41:35.167Z,44.20
2023-05-07T01:44:24.476Z,44.20
2023-05-07T01:47:13.954Z,44.20
2023-05-07T01:50:02.903Z,44.30
2023-05-07T01:52:53.385Z,44.30
2023-05-07T01:55:42.086Z,44.30
2023-05-07T01:58:32.296Z,44.20
2023-05-07T02:01:21.015Z,44.20
2023-05-07T02:04:10.246Z,44.20
2023-05-07T02:06:58.921Z,44.20
2023-05-07T02:09:47.461Z,44.20
2023-05-07T02:12:36.065Z,44.20
2023-05-07T02:15:26.139Z,44.20
2023-05-07T02:18:14.689Z,44.20
2023-05-07T02:21:03.233Z,44.20
2023-05-07T02:23:51.706Z,44.20
2023-05-07T02:26:40.304Z,44.20
2023-05-07T02:29:28.857Z,44.20
2023-05-07T02:32:19.009Z,44.20
2023-05-07T02:35:08.122Z,44.20
2023-05-07T02:37:56.862Z,44.20
2023-05-07T02:40:45.892Z,44.30
2023-05-07T02:43:34.378Z,44.20
2023-05-07T02:46:23.547Z,44.30
2023-05-07T02:49:13.629Z,44.30
2023-05-07T02:52:02.334Z,44.30
2023-05-07T02:54:51.090Z,44.30
2023-05-07T02:57:39.608Z,44.30
2023-05-07T03:00:28.250Z,44.30
2023-05-07T03:03:17.201Z,44.30
2023-05-07T03:06:07.737Z,44.30
2023-05-07T03:08:56.362Z,44.30
2023-05-07T03:11:45.547Z,44.20
2023-05-07T03:14:36.913Z,44.30
2023-05-07T03:17:25.552Z,44.30
2023-05-07T03:20:14.730Z,44.20
2023-05-07T03:23:05.093Z,44.20
2023-05-07T03:25:53.740Z,44.20
2023-05-07T03:28:42.246Z,44.10
2023-05-07T03:31:31.179Z,44.10
2023-05-07T03:34:23.492Z,44.10
2023-05-07T03:37:12.169Z,44.20
2023-05-07T03:40:02.259Z,44.20
2023-05-07T03:42:50.864Z,44.20
2023-05-07T03:45:39.659Z,44.10
2023-05-07T03:48:28.310Z,44.10
2023-05-07T03:51:17.244Z,44.10
2023-05-07T03:54:06.293Z,44.20
2023-05-07T03:56:56.301Z,44.10
2023-05-07T03:59:44.818Z,44.10
2023-05-07T04:02:34.431Z,44.20
2023-05-07T04:05:26.048Z,44.20
2023-05-07T04:08:17.484Z,44.20
2023-05-07T04:11:06.493Z,44.20
2023-05-07T04:13:56.423Z,44.10
2023-05-07T04:16:45.227Z,44.20
2023-05-07T04:19:35.953Z,44.20
2023-05-07T04:22:24.447Z,44.20
2023-05-07T04:25:13.059Z,44.10
2023-05-07T04:28:01.626Z,44.20
2023-05-07T04:30:52.136Z,44.20
2023-05-07T04:33:40.886Z,44.20
2023-05-07T04:36:30.271Z,44.10
2023-05-07T04:39:19.094Z,44.10
2023-05-07T04:42:10.124Z,44.10
2023-05-07T04:44:58.863Z,44.00
2023-05-07T04:47:48.951Z,44.00
2023-05-07T04:50:37.817Z,44.00
2023-05-07T04:53:26.479Z,43.90
2023-05-07T04:56:15.133Z,43.80
2023-05-07T04:59:03.760Z,43.80
2023-05-07T05:01:52.731Z,43.80
2023-05-07T05:04:42.888Z,43.70
2023-05-07T05:07:31.588Z,43.70
2023-05-07T05:10:21.560Z,43.60
2023-05-07T05:13:13.914Z,43.50
2023-05-07T05:16:02.746Z,43.50
2023-05-07T05:18:53.199Z,43.30
2023-05-07T05:21:43.208Z,43.30
2023-05-07T05:24:31.772Z,43.20
2023-05-07T05:27:20.385Z,43.10
2023-05-07T05:30:10.259Z,43.00
2023-05-07T05:32:59.337Z,43.00
2023-05-07T05:35:48.103Z,42.90
2023-05-07T05:38:38.484Z,42.80
2023-05-07T05:41:27.561Z,42.80
2023-05-07T05:44:16.181Z,42.70
2023-05-07T05:47:06.383Z,42.60
2023-05-07T05:49:54.979Z,42.50
2023-05-07T05:52:43.753Z,42.40
2023-05-07T05:55:34.564Z,42.30
2023-05-07T05:58:23.348Z,42.20
2023-05-07T06:01:12.645Z,42.10
2023-05-07T06:04:01.326Z,42.00
2023-05-07T06:06:49.975Z,41.90
2023-05-07T06:09:38.472Z,41.80
2023-05-07T06:12:28.418Z,41.70
2023-05-07T06:15:16.845Z,41.60
2023-05-07T06:18:05.562Z,41.40
2023-05-07T06:20:54.377Z,41.30
2023-05-07T06:23:45.814Z,41.20
2023-05-07T06:26:34.519Z,41.10
2023-05-07T06:29:28.215Z,41.00
2023-05-07T06:32:18.205Z,41.00
2023-05-07T06:35:07.554Z,40.90
2023-05-07T06:37:56.166Z,40.90
2023-05-07T06:40:44.636Z,40.80
2023-05-07T06:43:33.155Z,40.70
2023-05-07T06:46:23.016Z,40.60
2023-05-07T06:49:11.706Z,40.40
2023-05-07T06:52:00.165Z,40.40
2023-05-07T06:54:48.753Z,40.30
2023-05-07T06:57:37.359Z,40.20
2023-05-07T07:00:26.168Z,40.10
2023-05-07T07:03:15.974Z,40.00
2023-05-07T07:06:04.733Z,39.80
2023-05-07T07:08:53.375Z,39.50
2023-05-07T07:11:41.903Z,37.90
2023-05-07T07:14:30.496Z,37.20
2023-05-07T07:17:19.011Z,37.20
2023-05-07T07:20:11.858Z,37.90
2023-05-07T07:23:00.880Z,37.50
2023-05-07T07:25:49.545Z,37.20
2023-05-07T07:28:45.306Z,36.40
2023-05-07T07:31:34.276Z,36.30
2023-05-07T07:34:22.813Z,36.30
2023-05-07T07:37:12.834Z,35.90
2023-05-07T07:40:02.166Z,35.60
2023-05-07T07:42:50.984Z,35.30
2023-05-07T07:45:41.148Z,35.20
2023-05-07T07:48:30.030Z,35.00
2023-05-07T07:51:18.630Z,34.90
2023-05-07T07:54:08.919Z,34.90
2023-05-07T07:56:57.418Z,34.70
2023-05-07T07:59:45.835Z,34.80
2023-05-07T08:02:34.510Z,34.70
2023-05-07T08:05:23.290Z,34.50
2023-05-07T08:08:11.808Z,34.40
2023-05-07T08:11:01.729Z,34.40
2023-05-07T08:13:50.486Z,34.20
2023-05-07T08:16:39.131Z,34.00
2023-05-07T08:19:27.862Z,33.80
2023-05-07T08:22:16.690Z,33.50
2023-05-07T08:25:05.622Z,33.30
2023-05-07T08:27:55.470Z,32.90
2023-05-07T08:30:44.052Z,32.60
2023-05-07T08:33:32.653Z,32.20
2023-05-07T08:36:21.124Z,32.00
2023-05-07T08:39:09.761Z,31.80
2023-05-07T08:41:59.095Z,31.50
2023-05-07T08:44:49.247Z,31.30
2023-05-07T08:47:48.764Z,30.90
2023-05-07T08:50:38.658Z,30.40
2023-05-07T08:53:27.357Z,30.30
2023-05-07T08:56:16.655Z,30.30
2023-05-07T08:59:05.085Z,30.30
2023-05-07T09:01:54.927Z,30.30
2023-05-07T09:04:43.397Z,30.30
2023-05-07T09:07:32.750Z,30.20
2023-05-07T09:10:22.550Z,30.00
2023-05-07T09:13:11.820Z,29.80
2023-05-07T09:16:00.587Z,29.40
2023-05-07T09:18:54.487Z,29.80
2023-05-07T09:21:42.975Z,30.00
2023-05-07T09:24:35.030Z,30.00
2023-05-07T09:27:23.607Z,29.90
2023-05-07T09:30:13.222Z,29.80
2023-05-07T09:33:03.193Z,29.50
2023-05-07T09:35:55.101Z,29.60
2023-05-07T09:38:44.607Z,29.50
2023-05-07T09:41:33.920Z,29.70
2023-05-07T09:44:22.991Z,29.70
2023-05-07T09:47:13.848Z,29.60
2023-05-07T09:50:04.445Z,29.80
2023-05-07T09:52:55.287Z,30.60
2023-05-07T09:55:44.413Z,30.90
2023-05-07T09:58:34.604Z,30.50
2023-05-07T10:01:24.188Z,29.90
2023-05-07T10:04:13.722Z,30.60
2023-05-07T10:07:03.646Z,30.00
2023-05-07T10:09:55.065Z,30.60
2023-05-07T10:12:44.074Z,30.80
2023-05-07T10:15:33.406Z,31.00
2023-05-07T10:18:24.913Z,31.80
2023-05-07T10:21:18.249Z,29.40
2023-05-07T10:24:09.703Z,31.70
2023-05-07T10:27:02.753Z,31.70
2023-05-07T10:30:00.549Z,31.50
2023-05-07T10:32:52.176Z,32.70
2023-05-07T10:35:43.032Z,31.90
2023-05-07T10:38:32.250Z,32.80
2023-05-07T10:41:23.450Z,32.40
2023-05-07T10:44:13.612Z,32.80
2023-05-07T10:47:10.592Z,32.80
2023-05-07T10:50:24.958Z,33.20
2023-05-07T10:53:29.441Z,33.40
2023-05-07T10:56:31.552Z,33.50
2023-05-07T10:59:43.895Z,33.70
2023-05-07T11:03:08.417Z,33.00
2023-05-07T11:06:14.541Z,32.30
2023-05-07T11:09:03.201Z,33.70
2023-05-07T11:11:53.295Z,33.80
2023-05-07T11:14:49.227Z,33.20
2023-05-07T11:17:54.568Z,33.10
2023-05-07T11:21:08.215Z,32.50
2023-05-07T11:24:03.424Z,31.90
2023-05-07T11:26:53.162Z,32.20
2023-05-07T11:29:41.644Z,33.00
2023-05-07T11:32:33.443Z,33.40
2023-05-07T11:35:27.622Z,33.60
2023-05-07T11:38:16.845Z,33.40
2023-05-07T11:41:06.421Z,33.70
2023-05-07T11:44:01.885Z,33.30
2023-05-07T11:46:51.674Z,32.70
2023-05-07T11:49:41.854Z,32.10
2023-05-07T11:52:30.432Z,31.90
2023-05-07T11:55:21.121Z,32.50
2023-05-07T11:58:11.422Z,32.90
2023-05-07T12:01:00.197Z,33.10
2023-05-07T12:03:48.984Z,33.30
2023-05-07T12:06:41.534Z,33.50
2023-05-07T12:09:30.871Z,33.50
2023-05-07T12:12:19.698Z,33.40
2023-05-07T12:15:09.525Z,33.80
2023-05-07T12:17:58.317Z,33.30
2023-05-07T12:20:47.620Z,33.20
2023-05-07T12:23:38.849Z,32.80
2023-05-07T12:26:27.742Z,32.80
2023-05-07T12:29:16.472Z,33.20
2023-05-07T12:32:07.202Z,32.70
2023-05-07T12:34:56.089Z,32.50
2023-05-07T12:37:44.577Z,32.80
2023-05-07T12:40:42.536Z,33.00
2023-05-07T12:43:31.440Z,33.50
2023-05-07T12:46:20.116Z,33.30
2023-05-07T12:49:08.596Z,32.90
2023-05-07T12:51:57.815Z,33.00
2023-05-07T12:54:47.217Z,32.80
2023-05-07T12:57:42.322Z,32.40
2023-05-07T13:00:38.133Z,32.70
2023-05-07T13:03:31.583Z,33.20
2023-05-07T13:06:20.239Z,33.50
2023-05-07T13:09:09.148Z,33.00
2023-05-07T13:11:57.765Z,33.00
2023-05-07T13:14:47.683Z,33.20
2023-05-07T13:17:36.285Z,34.00
2023-05-07T13:20:25.188Z,33.90
2023-05-07T13:23:13.764Z,32.40
2023-05-07T13:26:08.661Z,32.70
2023-05-07T13:29:03.693Z,32.60
2023-05-07T13:31:53.807Z,32.20
2023-05-07T13:34:42.209Z,32.60
2023-05-07T13:37:30.849Z,32.20
2023-05-07T13:40:19.349Z,32.70
2023-05-07T13:43:09.090Z,32.80
2023-05-07T13:45:57.614Z,32.10
2023-05-07T13:48:47.584Z,32.20
2023-05-07T13:51:36.389Z,32.00
2023-05-07T13:54:25.133Z,32.30
2023-05-07T13:57:13.625Z,32.80
2023-05-07T14:00:02.080Z,32.90
2023-05-07T14:02:50.668Z,33.00
2023-05-07T14:05:40.654Z,32.30
2023-05-07T14:08:31.736Z,32.60
2023-05-07T14:11:20.703Z,32.70
2023-05-07T14:14:11.719Z,32.00
2023-05-07T14:17:00.329Z,33.10
2023-05-07T14:19:48.840Z,33.30
2023-05-07T14:22:38.744Z,33.30
2023-05-07T14:25:27.719Z,33.10
2023-05-07T14:28:16.328Z,33.20
2023-05-07T14:31:04.875Z,33.30
2023-05-07T14:33:53.820Z,33.40
2023-05-07T14:36:42.545Z,33.40
2023-05-07T14:39:32.462Z,33.30
2023-05-07T14:42:21.334Z,33.40
2023-05-07T14:45:11.460Z,33.30
2023-05-07T14:48:00.217Z,33.30
2023-05-07T14:50:52.036Z,33.20
2023-05-07T14:53:40.663Z,33.10
2023-05-07T14:56:30.991Z,33.10
2023-05-07T14:59:22.154Z,33.30
2023-05-07T15:02:11.500Z,33.20
2023-05-07T15:05:01.723Z,33.00
2023-05-07T15:07:50.200Z,33.30
2023-05-07T15:10:42.033Z,33.10
2023-05-07T15:13:32.391Z,33.30
2023-05-07T15:16:21.435Z,33.20
2023-05-07T15:19:10.010Z,33.30
2023-05-07T15:22:00.761Z,33.40
2023-05-07T15:24:49.520Z,33.30
2023-05-07T15:27:38.096Z,33.50
2023-05-07T15:30:28.353Z,33.50
2023-05-07T15:33:16.792Z,33.60
2023-05-07T15:36:07.032Z,33.70
2023-05-07T15:38:55.787Z,33.70
2023-05-07T15:41:44.329Z,33.80
2023-05-07T15:44:35.600Z,33.70
2023-05-07T15:47:26.117Z,33.90
2023-05-07T15:50:14.614Z,34.00
2023-05-07T15:53:04.178Z,33.80
2023-05-07T15:55:52.676Z,34.30
2023-05-07T15:58:41.196Z,34.80
2023-05-07T16:01:29.883Z,34.10
2023-05-07T16:04:19.893Z,33.70
2023-05-07T16:07:12.775Z,34.00
2023-05-07T16:10:01.683Z,33.10
2023-05-07T16:12:50.427Z,32.40
2023-05-07T16:15:38.954Z,32.20
2023-05-07T16:18:27.660Z,32.50
2023-05-07T16:21:17.832Z,32.50
2023-05-07T16:24:06.522Z,32.50
2023-05-07T16:26:55.397Z,33.10
2023-05-07T16:29:44.117Z,33.20
2023-05-07T16:32:32.923Z,33.50
2023-05-07T16:35:22.234Z,33.60
2023-05-07T16:38:12.463Z,33.80
2023-05-07T16:41:01.423Z,34.00
2023-05-07T16:43:50.188Z,34.20
2023-05-07T16:46:38.758Z,34.30
2023-05-07T16:49:27.419Z,34.80
2023-05-07T16:52:16.021Z,34.40
2023-05-07T16:57:55.159Z,34.00
2023-05-07T17:00:50.640Z,34.00
2023-05-07T17:03:39.957Z,33.70
2023-05-07T17:06:28.412Z,33.60
2023-05-07T17:09:16.920Z,33.60
2023-05-07T17:12:07.303Z,33.40
2023-05-07T17:14:55.968Z,33.00
2023-05-07T17:17:44.632Z,33.20
2023-05-07T17:20:33.165Z,33.40
2023-05-07T17:23:21.664Z,33.70
2023-05-07T17:26:13.913Z,33.80
2023-05-07T17:29:03.874Z,33.70
2023-05-07T17:31:52.922Z,33.80
2023-05-07T17:34:41.372Z,34.20
2023-05-07T17:37:29.921Z,34.30
2023-05-07T17:40:18.672Z,34.60
2023-05-07T17:43:07.515Z,34.80
2023-05-07T17:45:57.488Z,34.90
2023-05-07T17:48:46.239Z,35.10
2023-05-07T17:51:49.870Z,35.30
2023-05-07T17:54:41.711Z,35.40
2023-05-07T17:57:31.611Z,35.50
2023-05-07T18:00:20.356Z,35.60
2023-05-07T18:03:10.608Z,35.70
2023-05-07T18:06:00.128Z,35.70
2023-05-07T18:08:49.154Z,35.80
2023-05-07T18:11:37.957Z,35.70
2023-05-07T18:14:26.557Z,35.70
2023-05-07T18:17:15.245Z,35.90
2023-05-07T18:20:06.099Z,35.90
2023-05-07T18:22:54.669Z,36.00
2023-05-07T18:25:43.267Z,36.00
2023-05-07T18:28:34.533Z,36.10
2023-05-07T18:31:23.111Z,36.30
2023-05-07T18:34:11.682Z,36.40
2023-05-07T18:37:01.641Z,36.60
2023-05-07T18:39:50.175Z,36.70
2023-05-07T18:42:38.612Z,36.80
2023-05-07T18:45:27.349Z,36.90
2023-05-07T18:48:16.920Z,36.90
2023-05-07T18:51:05.944Z,36.90
2023-05-07T18:53:55.828Z,37.00
2023-05-07T18:56:44.306Z,37.10
2023-05-07T18:59:33.450Z,37.20
2023-05-07T19:02:22.392Z,37.70
2023-05-07T19:05:11.491Z,38.40
2023-05-07T19:08:00.090Z,38.40
2023-05-07T19:10:50.221Z,38.30
2023-05-07T19:13:38.693Z,37.90
2023-05-07T19:16:27.582Z,37.90
2023-05-07T19:19:16.256Z,37.80
2023-05-07T19:22:04.897Z,37.70
2023-05-07T19:24:53.547Z,37.60
2023-05-07T19:27:43.651Z,37.60
2023-05-07T19:30:33.549Z,37.50
2023-05-07T19:33:22.197Z,37.40
2023-05-07T19:36:10.937Z,37.40
2023-05-07T19:38:59.535Z,37.30
2023-05-07T19:41:48.130Z,37.30
2023-05-07T19:44:38.467Z,37.40
2023-05-07T19:47:28.379Z,37.40
2023-05-07T19:50:17.716Z,37.30
2023-05-07T19:53:06.502Z,37.40
2023-05-07T19:56:03.598Z,37.30
2023-05-07T19:58:53.000Z,37.40
2023-05-07T20:01:43.169Z,37.40
2023-05-07T20:04:33.798Z,37.40
2023-05-07T20:07:22.478Z,37.40
2023-05-07T20:10:12.188Z,37.40
2023-05-07T20:13:01.153Z,37.50
2023-05-07T20:15:51.060Z,37.50
2023-05-07T20:18:41.449Z,37.50
2023-05-07T20:21:30.182Z,37.40
2023-05-07T20:24:20.884Z,37.30
2023-05-07T20:27:09.712Z,37.30
2023-05-07T20:29:58.266Z,37.30
2023-05-07T20:32:46.715Z,37.40
2023-05-07T20:35:37.449Z,37.40
2023-05-07T20:38:27.042Z,37.40
2023-05-07T20:41:15.497Z,37.50
2023-05-07T20:44:04.060Z,37.50
2023-05-07T20:46:52.622Z,37.50
2023-05-07T20:49:41.348Z,37.50
2023-05-07T20:52:31.255Z,37.60
2023-05-07T20:55:21.609Z,37.60
2023-05-07T20:58:10.113Z,37.60
2023-05-07T21:00:58.705Z,37.70
2023-05-07T21:03:47.216Z,37.70
2023-05-07T21:06:35.689Z,37.70
2023-05-07T21:09:25.522Z,37.70
2023-05-07T21:12:13.944Z,37.70
2023-05-07T21:15:02.431Z,37.80
2023-05-07T21:17:50.851Z,37.80
2023-05-07T21:20:39.686Z,37.80
2023-05-07T21:23:28.149Z,37.90
2023-05-07T21:26:21.951Z,37.90
2023-05-07T21:29:10.366Z,37.90
2023-05-07T21:31:58.958Z,37.90
2023-05-07T21:34:47.582Z,38.00
2023-05-07T21:37:36.090Z,38.00
2023-05-07T21:40:24.515Z,38.00
2023-05-07T21:43:14.372Z,38.10
2023-05-07T21:46:04.133Z,38.10
2023-05-07T21:48:52.772Z,38.20
2023-05-07T21:51:41.448Z,38.20
2023-05-07T21:54:30.054Z,38.20
2023-05-07T21:57:18.625Z,38.30
2023-05-07T22:00:09.664Z,38.30
2023-05-07T22:02:58.252Z,38.40
2023-05-07T22:05:48.675Z,38.40
2023-05-07T22:08:38.261Z,38.40
2023-05-07T22:11:27.395Z,38.50
2023-05-07T22:14:16.314Z,38.50
2023-05-07T22:17:07.077Z,38.50
2023-05-07T22:19:55.558Z,38.60
2023-05-07T22:22:52.253Z,38.70
2023-05-07T22:25:41.471Z,38.70
2023-05-07T22:28:29.981Z,38.70
2023-05-07T22:31:18.483Z,38.80
2023-05-07T22:34:08.625Z,38.80
2023-05-07T22:36:57.164Z,38.90
2023-05-07T22:39:45.661Z,38.90
2023-05-07T22:42:34.116Z,38.90
2023-05-07T22:45:22.552Z,39.00
2023-05-07T22:48:11.049Z,39.00
2023-05-07T22:51:01.040Z,39.00
2023-05-07T22:53:49.491Z,39.00
2023-05-07T22:56:38.138Z,39.10
2023-05-07T22:59:26.736Z,39.10
2023-05-07T23:02:15.412Z,39.10
2023-05-07T23:05:04.220Z,39.10
2023-05-07T23:07:54.360Z,39.10
2023-05-07T23:10:42.840Z,39.10
2023-05-07T23:13:31.932Z,39.10
2023-05-07T23:16:20.502Z,39.10
2023-05-07T23:19:09.129Z,39.20
2023-05-07T23:21:57.657Z,39.20
2023-05-07T23:24:47.476Z,39.20
2023-05-07T23:27:36.068Z,39.20
2023-05-07T23:30:24.759Z,39.20
2023-05-07T23:33:13.394Z,39.20
2023-05-07T23:36:01.965Z,39.20
2023-05-07T23:38:51.114Z,39.20
2023-05-07T23:41:41.253Z,39.20
2023-05-07T23:44:29.849Z,39.30
2023-05-07T23:47:19.104Z,39.30
2023-05-07T23:50:08.469Z,39.30
2023-05-07T23:52:57.177Z,39.30
2023-05-07T23:55:47.910Z,39.40
2023-05-07T23:58:37.783Z,39.50
